メインページ
METAR-TAF:

METAR-TAF

空港 :

対馬空港

対馬, 日本

緯度: 34-17N, 経度: 129-20E, 海抜: 63m

現時点の気象観測

当レポートは22分前の07:00(UTC)に作成
南東の風 6kt、東/南東から南/南西の間で変化する
気温 28°C
湿度 62%
気圧 1006 hPa
視程10km以上
高度3000ftの雲はほとんどない

METAR: RJDT 200700Z 14006KT 110V200 9999 FEW030 28/20 Q1006

時間: 16:22 (07:22 UTC)


TAF: 見つかりません

4,000以上の空港の気象観測と天気予報(METAR報とTAF報)

利用可能な観測所は地図上に黄色い丸と赤い丸で示す。

丸の上にカーソルを重ねると観測所名を参照できる。

次にクリックすると気象観測と天気予報を参照できる。

マップの切り替え:黒色「×」印の緑ボタンをクリックして拡大、「-」印の緑ボタンをクリックして縮小、緑色の三角印をクリックして隣りの地図に切り替え


METAR-TAF: